SCTE 231200Z 19009KT 9999 SCT030 10/04 Q1022 NOSIG